createdAt,value
2022-12-29T00:02:14.121Z,99.00
2022-12-29T00:05:56.948Z,98.70
2022-12-29T00:09:39.045Z,98.50
2022-12-29T00:13:39.518Z,98.60
2022-12-29T00:17:21.258Z,98.50
2022-12-29T00:21:21.607Z,98.40
2022-12-29T00:25:22.989Z,98.20
2022-12-29T00:29:23.398Z,98.00
2022-12-29T00:33:38.764Z,97.90
2022-12-29T00:37:40.708Z,97.10
2022-12-29T00:41:40.743Z,97.80
2022-12-29T00:45:22.450Z,97.70
2022-12-29T00:49:23.841Z,97.70
2022-12-29T00:53:05.647Z,97.90
2022-12-29T00:56:48.823Z,97.60
2022-12-29T01:00:30.599Z,97.50
2022-12-29T01:04:12.946Z,97.50
2022-12-29T01:07:54.664Z,97.50
2022-12-29T01:11:36.388Z,97.50
2022-12-29T01:15:18.383Z,97.50
2022-12-29T01:19:00.291Z,97.50
2022-12-29T01:22:43.406Z,97.50
2022-12-29T01:26:25.341Z,97.60
2022-12-29T01:30:07.567Z,97.60
2022-12-29T01:33:49.361Z,97.70
2022-12-29T01:37:31.220Z,97.90
2022-12-29T01:41:15.084Z,98.00
2022-12-29T01:45:00.812Z,98.00
2022-12-29T01:48:43.769Z,98.30
2022-12-29T01:52:29.645Z,98.60
2022-12-29T01:56:15.871Z,98.50
2022-12-29T02:00:09.434Z,98.50
2022-12-29T02:03:51.577Z,98.30
2022-12-29T02:07:33.337Z,97.80
2022-12-29T02:11:16.652Z,98.50
2022-12-29T02:15:02.826Z,98.40
2022-12-29T02:19:25.882Z,98.40
2022-12-29T02:23:33.868Z,97.80
2022-12-29T02:27:52.662Z,98.70
2022-12-29T02:31:45.468Z,97.50
2022-12-29T02:35:49.911Z,97.80
2022-12-29T02:39:53.281Z,97.80
2022-12-29T02:43:44.166Z,98.40
2022-12-29T02:48:03.534Z,98.50
2022-12-29T02:51:54.100Z,97.40
2022-12-29T02:55:35.844Z,98.50
2022-12-29T02:59:18.248Z,98.90
2022-12-29T03:03:21.131Z,98.90
2022-12-29T03:07:21.214Z,97.90
2022-12-29T03:11:33.902Z,98.80
2022-12-29T03:15:53.702Z,98.60
2022-12-29T03:19:39.100Z,98.40
2022-12-29T03:23:22.282Z,98.90
2022-12-29T03:27:07.484Z,98.90
2022-12-29T03:30:49.555Z,98.90
2022-12-29T03:34:32.668Z,99.00
2022-12-29T03:38:24.178Z,99.00
2022-12-29T03:42:15.326Z,98.90
2022-12-29T03:45:57.177Z,98.80
2022-12-29T03:49:39.230Z,98.90
2022-12-29T03:53:21.088Z,98.90
2022-12-29T03:57:02.807Z,98.90
2022-12-29T04:00:44.519Z,98.90
2022-12-29T04:04:26.211Z,98.80
2022-12-29T04:08:07.920Z,98.90
2022-12-29T04:11:49.797Z,98.80
2022-12-29T04:15:31.599Z,98.60
2022-12-29T04:19:14.313Z,98.50
2022-12-29T04:23:01.572Z,98.40
2022-12-29T04:26:43.303Z,98.20
2022-12-29T04:30:25.464Z,98.30
2022-12-29T04:34:07.270Z,98.50
2022-12-29T04:37:49.016Z,98.70
2022-12-29T04:41:30.721Z,98.90
2022-12-29T04:45:12.491Z,98.80
2022-12-29T04:48:54.307Z,98.50
2022-12-29T04:52:36.464Z,98.40
2022-12-29T04:56:18.206Z,98.30
2022-12-29T05:00:00.268Z,98.60
2022-12-29T05:03:42.086Z,98.50
2022-12-29T05:07:23.906Z,98.30
2022-12-29T05:11:06.271Z,98.20
2022-12-29T05:14:47.988Z,98.20
2022-12-29T05:18:29.692Z,98.10
2022-12-29T05:22:11.413Z,98.30
2022-12-29T05:25:53.115Z,98.00
2022-12-29T05:29:34.862Z,98.00
2022-12-29T05:33:17.411Z,98.20
2022-12-29T05:37:00.169Z,98.50
2022-12-29T05:40:41.871Z,98.50
2022-12-29T05:44:23.847Z,98.40
2022-12-29T05:48:05.786Z,98.50
2022-12-29T05:51:47.520Z,98.50
2022-12-29T05:55:29.310Z,98.40
2022-12-29T05:59:11.027Z,98.40
2022-12-29T06:02:53.004Z,99.00
2022-12-29T06:06:34.924Z,98.80
2022-12-29T06:10:16.924Z,98.90
2022-12-29T06:13:58.659Z,99.00
2022-12-29T06:17:41.657Z,99.00
2022-12-29T06:21:23.465Z,99.10
2022-12-29T06:25:06.441Z,99.10
2022-12-29T06:28:48.184Z,99.20
2022-12-29T06:32:29.934Z,99.10
2022-12-29T06:36:11.634Z,99.10
2022-12-29T06:39:53.385Z,99.10
2022-12-29T06:43:36.837Z,99.10
2022-12-29T06:47:19.517Z,99.10
2022-12-29T06:51:01.359Z,99.10
2022-12-29T06:54:43.154Z,99.00
2022-12-29T06:58:24.857Z,99.00
2022-12-29T07:02:06.917Z,98.90
2022-12-29T07:05:48.725Z,99.00
2022-12-29T07:09:30.467Z,98.90
2022-12-29T07:13:12.186Z,99.00
2022-12-29T07:16:54.120Z,98.70
2022-12-29T07:20:36.209Z,98.70
2022-12-29T07:24:17.995Z,98.70
2022-12-29T07:27:59.743Z,98.80
2022-12-29T07:31:41.495Z,98.90
2022-12-29T07:35:23.255Z,98.90
2022-12-29T07:39:05.091Z,98.90
2022-12-29T07:42:46.857Z,99.00
2022-12-29T07:46:55.465Z,99.00
2022-12-29T07:50:30.251Z,99.00
2022-12-29T07:54:13.588Z,99.00
2022-12-29T07:57:55.600Z,99.00
2022-12-29T08:01:37.787Z,98.40
2022-12-29T08:05:19.684Z,98.90
2022-12-29T08:09:09.819Z,98.80
2022-12-29T08:12:55.264Z,98.80
2022-12-29T08:16:37.102Z,98.80
2022-12-29T08:20:18.863Z,98.80
2022-12-29T08:24:00.762Z,98.80
2022-12-29T08:27:42.499Z,98.60
2022-12-29T08:31:24.881Z,98.50
2022-12-29T08:35:06.925Z,98.50
2022-12-29T08:38:48.764Z,98.50
2022-12-29T08:42:34.682Z,98.50
2022-12-29T08:46:17.713Z,98.20
2022-12-29T08:49:59.691Z,98.20
2022-12-29T08:53:41.471Z,98.00
2022-12-29T08:57:23.164Z,98.00
2022-12-29T09:01:05.587Z,98.20
2022-12-29T09:04:47.428Z,98.20
2022-12-29T09:08:29.308Z,98.20
2022-12-29T09:12:11.018Z,98.20
2022-12-29T09:16:00.380Z,98.10
2022-12-29T09:19:42.728Z,97.60
2022-12-29T09:23:24.823Z,98.20
2022-12-29T09:27:06.612Z,98.20
2022-12-29T09:30:49.036Z,98.50
2022-12-29T09:34:30.825Z,98.20
2022-12-29T09:38:13.120Z,98.20
2022-12-29T09:42:17.408Z,98.10
2022-12-29T09:46:28.451Z,96.50
2022-12-29T09:50:24.885Z,96.40
2022-12-29T09:54:34.072Z,97.00
2022-12-29T09:58:27.752Z,96.40
2022-12-29T10:02:32.191Z,97.50
2022-12-29T10:06:21.607Z,96.90
2022-12-29T10:10:15.795Z,97.40
2022-12-29T10:14:25.365Z,97.80
2022-12-29T10:18:22.350Z,97.60
2022-12-29T10:22:22.170Z,97.60
2022-12-29T10:26:05.537Z,98.40
2022-12-29T10:29:58.534Z,98.40
2022-12-29T10:33:42.908Z,97.20
2022-12-29T10:37:44.225Z,98.10
2022-12-29T10:41:56.544Z,96.40
2022-12-29T10:45:39.071Z,97.20
2022-12-29T10:49:29.012Z,98.20
2022-12-29T10:53:20.250Z,97.60
2022-12-29T10:57:09.277Z,97.90
2022-12-29T11:00:54.718Z,98.20
2022-12-29T11:04:48.614Z,98.30
2022-12-29T11:08:39.165Z,97.50
2022-12-29T11:12:27.481Z,98.00
2022-12-29T11:16:12.833Z,97.70
2022-12-29T11:19:54.600Z,97.80
2022-12-29T11:23:38.850Z,98.30
2022-12-29T11:27:27.410Z,98.20
2022-12-29T11:31:10.141Z,97.40
2022-12-29T11:34:52.279Z,98.40
2022-12-29T11:38:51.919Z,98.40
2022-12-29T11:42:38.129Z,96.80
2022-12-29T11:46:25.161Z,97.80
2022-12-29T11:50:09.258Z,98.10
2022-12-29T11:53:54.412Z,98.10
2022-12-29T11:57:36.883Z,97.90
2022-12-29T12:01:37.261Z,98.00
2022-12-29T12:05:21.804Z,97.40
2022-12-29T12:09:23.647Z,97.50
2022-12-29T12:13:17.934Z,96.30
2022-12-29T12:17:02.497Z,97.30
2022-12-29T12:20:57.866Z,97.80
2022-12-29T12:24:51.269Z,96.20
2022-12-29T12:28:46.338Z,96.70
2022-12-29T12:32:54.775Z,96.10
2022-12-29T12:36:51.470Z,96.10
2022-12-29T12:40:56.163Z,95.80
2022-12-29T12:45:08.969Z,97.80
2022-12-29T12:49:09.791Z,95.90
2022-12-29T12:53:13.040Z,98.10
2022-12-29T12:57:10.355Z,96.60
2022-12-29T13:01:13.702Z,96.80
2022-12-29T13:05:31.729Z,95.70
2022-12-29T13:09:23.552Z,95.70
2022-12-29T13:13:20.110Z,96.60
2022-12-29T13:17:09.036Z,96.20
2022-12-29T13:21:19.791Z,96.50
2022-12-29T13:25:53.244Z,95.70
2022-12-29T13:29:49.827Z,95.90
2022-12-29T13:33:40.805Z,96.80
2022-12-29T13:37:28.805Z,96.80
2022-12-29T13:41:17.355Z,97.60
2022-12-29T13:45:03.460Z,97.80
2022-12-29T13:48:50.952Z,97.60
2022-12-29T13:52:45.133Z,96.80
2022-12-29T13:56:46.837Z,96.80
2022-12-29T14:00:34.371Z,96.20
2022-12-29T14:04:24.210Z,97.40
2022-12-29T14:08:14.582Z,96.60
2022-12-29T14:11:56.464Z,97.40
2022-12-29T14:15:43.184Z,97.60
2022-12-29T14:19:32.318Z,97.20
2022-12-29T14:23:14.204Z,96.80
2022-12-29T14:26:55.935Z,97.80
2022-12-29T14:30:53.873Z,97.90
2022-12-29T14:34:40.607Z,96.00
2022-12-29T14:38:27.939Z,97.10
2022-12-29T14:42:18.451Z,97.60
2022-12-29T14:46:02.867Z,97.20
2022-12-29T14:49:45.755Z,97.10
2022-12-29T14:53:48.227Z,97.00
2022-12-29T14:57:40.544Z,95.30
2022-12-29T15:01:34.194Z,95.70
2022-12-29T15:05:37.576Z,95.40
2022-12-29T15:09:37.549Z,95.10
2022-12-29T15:13:26.092Z,95.30
2022-12-29T15:17:32.846Z,96.10
2022-12-29T15:21:16.468Z,96.00
2022-12-29T15:24:58.960Z,96.40
2022-12-29T15:28:46.834Z,96.30
2022-12-29T15:32:30.655Z,95.80
2022-12-29T15:36:15.770Z,96.20
2022-12-29T15:39:57.584Z,96.10
2022-12-29T15:43:54.264Z,96.50
2022-12-29T15:47:36.299Z,96.20
2022-12-29T15:51:34.427Z,96.80
2022-12-29T15:55:24.116Z,95.80
2022-12-29T15:59:05.854Z,96.40
2022-12-29T16:02:47.944Z,97.30
2022-12-29T16:06:35.472Z,96.90
2022-12-29T16:10:44.220Z,96.10
2022-12-29T16:14:41.899Z,94.80
2022-12-29T16:18:35.912Z,95.60
2022-12-29T16:22:33.395Z,95.20
2022-12-29T16:26:20.812Z,95.10
2022-12-29T16:30:31.231Z,95.40
2022-12-29T16:34:34.695Z,95.10
2022-12-29T16:38:24.747Z,94.90
2022-12-29T16:42:51.256Z,95.00
2022-12-29T16:46:33.759Z,94.60
2022-12-29T16:50:28.072Z,95.30
2022-12-29T16:54:25.266Z,95.00
2022-12-29T16:58:13.036Z,94.80
2022-12-29T17:01:55.232Z,95.20
2022-12-29T17:05:36.951Z,95.30
2022-12-29T17:09:20.340Z,95.40
2022-12-29T17:13:02.053Z,95.50
2022-12-29T17:16:43.814Z,95.50
2022-12-29T17:20:29.456Z,95.60
2022-12-29T17:24:19.489Z,95.50
2022-12-29T17:28:04.460Z,95.40
2022-12-29T17:31:46.356Z,95.80
2022-12-29T17:35:28.717Z,95.60
2022-12-29T17:39:10.591Z,95.60
2022-12-29T17:42:57.456Z,95.60
2022-12-29T17:46:39.244Z,95.50
2022-12-29T17:50:24.772Z,95.90
2022-12-29T17:54:06.738Z,95.60
2022-12-29T17:57:48.710Z,95.70
2022-12-29T18:01:36.171Z,95.70
2022-12-29T18:05:24.105Z,95.70
2022-12-29T18:09:08.733Z,95.70
2022-12-29T18:12:52.885Z,95.80
2022-12-29T18:16:34.749Z,95.80
2022-12-29T18:20:16.997Z,95.90
2022-12-29T18:23:58.783Z,95.90
2022-12-29T18:27:41.460Z,95.90
2022-12-29T18:31:28.827Z,95.90
2022-12-29T18:35:18.833Z,95.90
2022-12-29T18:39:00.562Z,95.70
2022-12-29T18:42:42.312Z,95.90
2022-12-29T18:46:24.173Z,95.90
2022-12-29T18:50:06.272Z,95.90
2022-12-29T18:53:48.558Z,95.90
2022-12-29T18:57:31.558Z,96.30
2022-12-29T19:01:25.311Z,96.00
2022-12-29T19:05:21.912Z,95.70
2022-12-29T19:09:03.745Z,95.80
2022-12-29T19:12:45.723Z,96.00
2022-12-29T19:16:27.642Z,95.90
2022-12-29T19:20:33.440Z,96.00
2022-12-29T19:24:15.345Z,95.90
2022-12-29T19:27:57.554Z,96.00
2022-12-29T19:31:39.811Z,96.00
2022-12-29T19:35:23.077Z,96.10
2022-12-29T19:39:04.935Z,96.20
2022-12-29T19:42:47.205Z,96.00
2022-12-29T19:46:29.044Z,96.00
2022-12-29T19:50:15.035Z,96.00
2022-12-29T19:53:58.493Z,95.90
2022-12-29T19:57:40.142Z,95.80
2022-12-29T20:01:23.088Z,95.80
2022-12-29T20:05:05.671Z,95.70
2022-12-29T20:08:48.018Z,95.60
2022-12-29T20:12:30.088Z,95.70
2022-12-29T20:16:15.260Z,95.80
2022-12-29T20:19:56.988Z,95.80
2022-12-29T20:23:39.736Z,95.90
2022-12-29T20:27:21.593Z,95.80
2022-12-29T20:31:14.102Z,95.90
2022-12-29T20:34:55.843Z,95.90
2022-12-29T20:38:38.287Z,96.20
2022-12-29T20:42:21.122Z,95.90
2022-12-29T20:46:03.407Z,96.00
2022-12-29T20:49:45.144Z,96.00
2022-12-29T20:53:28.676Z,96.10
2022-12-29T20:57:10.437Z,96.10
2022-12-29T21:00:52.474Z,96.10
2022-12-29T21:04:57.346Z,96.10
2022-12-29T21:08:37.556Z,96.10
2022-12-29T21:12:19.369Z,96.10
2022-12-29T21:16:09.034Z,96.10
2022-12-29T21:19:50.808Z,96.10
2022-12-29T21:23:33.191Z,96.10
2022-12-29T21:27:15.006Z,96.10
2022-12-29T21:30:56.861Z,96.20
2022-12-29T21:34:38.679Z,96.20
2022-12-29T21:38:20.386Z,96.20
2022-12-29T21:42:02.636Z,96.20
2022-12-29T21:45:49.992Z,96.20
2022-12-29T21:49:32.128Z,96.10
2022-12-29T21:53:13.852Z,96.20
2022-12-29T21:56:55.846Z,96.20
2022-12-29T22:00:56.187Z,96.20
2022-12-29T22:04:56.613Z,96.20
2022-12-29T22:08:57.601Z,96.20
2022-12-29T22:12:58.898Z,96.30
2022-12-29T22:16:40.763Z,96.40
2022-12-29T22:20:25.657Z,96.40
2022-12-29T22:24:08.743Z,96.50
2022-12-29T22:27:55.726Z,96.60
2022-12-29T22:31:40.594Z,96.70
2022-12-29T22:35:22.341Z,96.70
2022-12-29T22:39:04.288Z,96.80
2022-12-29T22:42:46.230Z,96.90
2022-12-29T22:46:28.273Z,96.90
2022-12-29T22:50:10.359Z,97.00
2022-12-29T22:53:52.142Z,97.00
2022-12-29T22:57:34.312Z,97.10
2022-12-29T23:01:18.307Z,97.10
2022-12-29T23:05:03.362Z,97.20
2022-12-29T23:08:47.323Z,97.20
2022-12-29T23:12:30.864Z,97.30
2022-12-29T23:16:14.056Z,97.30
2022-12-29T23:19:56.149Z,97.40
2022-12-29T23:23:56.335Z,97.40
2022-12-29T23:27:38.071Z,97.40
2022-12-29T23:31:20.966Z,97.30
2022-12-29T23:35:02.893Z,97.40
2022-12-29T23:38:44.734Z,97.60
2022-12-29T23:42:26.480Z,97.80
2022-12-29T23:46:23.827Z,97.90
2022-12-29T23:50:06.131Z,98.10
2022-12-29T23:53:48.326Z,98.00
2022-12-29T23:57:30.469Z,98.00
